createdAt,value
2022-08-17T00:00:43.193Z,96598.00
2022-08-17T00:05:57.508Z,96584.00
2022-08-17T00:10:59.977Z,96593.00
2022-08-17T00:16:06.145Z,96597.00
2022-08-17T00:21:10.355Z,96597.00
2022-08-17T00:26:13.461Z,96602.00
2022-08-17T00:31:15.695Z,96594.00
2022-08-17T00:36:17.021Z,96595.00
2022-08-17T00:41:21.607Z,96591.00
2022-08-17T00:46:26.363Z,96583.00
2022-08-17T00:51:54.473Z,96588.00
2022-08-17T00:57:06.210Z,96583.00
2022-08-17T01:02:11.686Z,96579.00
2022-08-17T01:07:13.516Z,96577.00
2022-08-17T01:12:14.698Z,96584.00
2022-08-17T01:17:15.841Z,96584.00
2022-08-17T01:22:21.986Z,96586.00
2022-08-17T01:27:23.642Z,96580.00
2022-08-17T01:32:27.649Z,96581.00
2022-08-17T01:37:35.679Z,96587.00
2022-08-17T01:43:00.076Z,96586.00
2022-08-17T01:48:01.025Z,96588.00
2022-08-17T01:53:06.356Z,96578.00
2022-08-17T01:58:08.993Z,96575.00
2022-08-17T02:03:10.166Z,96576.00
2022-08-17T02:08:19.772Z,96567.00
2022-08-17T02:13:21.284Z,96562.00
2022-08-17T02:18:22.333Z,96576.00
2022-08-17T02:23:26.615Z,96591.00
2022-08-17T02:28:28.584Z,96581.00
2022-08-17T02:33:41.538Z,96591.00
2022-08-17T02:38:44.319Z,96591.00
2022-08-17T02:43:45.143Z,96591.00
2022-08-17T02:48:46.289Z,96574.00
2022-08-17T02:53:47.153Z,96566.00
2022-08-17T02:58:48.449Z,96575.00
2022-08-17T03:03:49.423Z,96584.00
2022-08-17T03:08:50.414Z,96578.00
2022-08-17T03:13:51.273Z,96576.00
2022-08-17T03:18:53.940Z,96575.00
2022-08-17T03:23:54.847Z,96574.00
2022-08-17T03:28:55.741Z,96565.00
2022-08-17T03:33:56.788Z,96562.00
2022-08-17T03:38:57.664Z,96570.00
2022-08-17T03:43:58.547Z,96571.00
2022-08-17T03:49:17.769Z,96579.00
2022-08-17T03:54:37.292Z,96585.00
2022-08-17T03:59:42.457Z,96573.00
2022-08-17T04:04:51.414Z,96566.00
2022-08-17T04:09:52.726Z,96581.00
2022-08-17T04:14:54.952Z,96583.00
2022-08-17T04:19:56.511Z,96584.00
2022-08-17T04:24:57.961Z,96578.00
2022-08-17T04:30:00.178Z,96590.00
2022-08-17T04:35:01.516Z,96586.00
2022-08-17T04:40:21.853Z,96598.00
2022-08-17T04:45:22.834Z,96587.00
2022-08-17T04:50:23.788Z,96592.00
2022-08-17T04:55:24.767Z,96605.00
2022-08-17T05:00:26.026Z,96598.00
2022-08-17T05:05:32.976Z,96595.00
2022-08-17T05:10:36.652Z,96608.00
2022-08-17T05:15:44.914Z,96603.00
2022-08-17T05:20:46.320Z,96607.00
2022-08-17T05:25:50.429Z,96602.00
2022-08-17T05:30:51.423Z,96589.00
2022-08-17T05:35:55.152Z,96583.00
2022-08-17T05:40:57.196Z,96575.00
2022-08-17T05:46:24.341Z,96586.00
2022-08-17T05:55:03.316Z,96587.00
2022-08-17T06:00:49.758Z,96581.00
2022-08-17T06:06:49.917Z,96580.00
2022-08-17T06:15:03.057Z,96579.00
2022-08-17T06:20:09.794Z,96583.00
2022-08-17T06:25:22.796Z,96575.00
2022-08-17T06:30:27.695Z,96579.00
2022-08-17T06:35:46.188Z,96584.00
2022-08-17T06:43:33.529Z,96566.00
2022-08-17T06:49:00.102Z,96562.00
2022-08-17T06:54:10.357Z,96571.00
2022-08-17T06:59:17.626Z,96590.00
2022-08-17T07:04:25.632Z,96579.00
2022-08-17T07:09:35.095Z,96593.00
2022-08-17T07:16:03.890Z,96609.00
2022-08-17T07:21:17.477Z,96600.00
2022-08-17T07:26:22.484Z,96619.00
2022-08-17T07:31:25.296Z,96618.00
2022-08-17T07:36:29.770Z,96615.00
2022-08-17T07:41:53.454Z,96626.00
2022-08-17T07:47:18.392Z,96607.00
2022-08-17T07:52:48.292Z,96616.00
2022-08-17T07:57:57.995Z,96621.00
2022-08-17T08:03:28.842Z,96624.00
2022-08-17T08:08:36.776Z,96641.00
2022-08-17T08:13:42.928Z,96643.00
2022-08-17T08:18:54.473Z,96651.00
2022-08-17T08:25:01.726Z,96668.00
2022-08-17T08:30:09.837Z,96673.00
2022-08-17T08:35:53.634Z,96677.00
2022-08-17T08:41:29.803Z,96674.00
2022-08-17T08:46:51.373Z,96671.00
2022-08-17T08:51:58.273Z,96665.00
2022-08-17T08:57:37.575Z,96676.00
2022-08-17T09:09:46.271Z,96656.00
2022-08-17T09:15:03.854Z,96676.00
2022-08-17T09:20:33.050Z,96675.00
2022-08-17T09:25:50.525Z,96667.00
2022-08-17T09:31:02.625Z,96652.00
2022-08-17T09:36:27.398Z,96673.00
2022-08-17T09:42:53.646Z,96694.00
2022-08-17T09:48:18.438Z,96705.00
2022-08-17T09:53:19.422Z,96699.00
2022-08-17T09:59:39.676Z,96697.00
2022-08-17T10:06:34.381Z,96696.00
2022-08-17T10:12:34.938Z,96698.00
2022-08-17T10:18:07.101Z,96695.00
2022-08-17T10:23:34.522Z,96683.00
2022-08-17T10:29:13.735Z,96686.00
2022-08-17T10:35:15.861Z,96679.00
2022-08-17T10:40:47.302Z,96676.00
2022-08-17T10:46:10.510Z,96676.00
2022-08-17T10:51:38.841Z,96683.00
2022-08-17T10:56:47.388Z,96691.00
2022-08-17T11:02:16.895Z,96689.00
2022-08-17T11:07:37.859Z,96697.00
2022-08-17T11:13:06.506Z,96713.00
2022-08-17T11:18:28.326Z,96705.00
2022-08-17T11:23:52.895Z,96717.00
2022-08-17T11:28:59.553Z,96706.00
2022-08-17T11:34:22.421Z,96697.00
2022-08-17T11:40:04.762Z,96687.00
2022-08-17T11:47:34.992Z,96705.00
2022-08-17T11:52:40.422Z,96694.00
2022-08-17T11:57:59.061Z,96691.00
2022-08-17T12:04:03.021Z,96701.00
2022-08-17T12:09:43.359Z,96703.00
2022-08-17T12:15:12.465Z,96691.00
2022-08-17T12:20:39.201Z,96685.00
2022-08-17T12:26:12.117Z,96686.00
2022-08-17T12:31:20.109Z,96680.00
2022-08-17T12:36:27.515Z,96684.00
2022-08-17T12:41:38.245Z,96680.00
2022-08-17T12:48:31.337Z,96671.00
2022-08-17T12:53:34.513Z,96665.00
2022-08-17T12:58:47.007Z,96663.00
2022-08-17T13:03:51.603Z,96665.00
2022-08-17T13:08:52.592Z,96668.00
2022-08-17T13:13:55.838Z,96656.00
2022-08-17T13:19:39.716Z,96646.00
2022-08-17T13:24:52.676Z,96654.00
2022-08-17T13:30:00.148Z,96625.00
2022-08-17T13:35:29.589Z,96643.00
2022-08-17T13:40:39.132Z,96639.00
2022-08-17T13:45:50.451Z,96639.00
2022-08-17T13:51:12.971Z,96632.00
2022-08-17T13:56:37.815Z,96632.00
2022-08-17T14:01:47.504Z,96623.00
2022-08-17T14:06:58.865Z,96612.00
2022-08-17T14:12:01.540Z,96622.00
2022-08-17T14:17:03.372Z,96617.00
2022-08-17T14:22:08.279Z,96603.00
2022-08-17T14:27:09.475Z,96607.00
2022-08-17T14:33:11.190Z,96606.00
2022-08-17T14:38:12.006Z,96605.00
2022-08-17T14:43:15.116Z,96602.00
2022-08-17T14:48:16.186Z,96597.00
2022-08-17T14:53:17.176Z,96594.00
2022-08-17T14:58:19.226Z,96602.00
2022-08-17T15:03:20.027Z,96592.00
2022-08-17T15:08:21.124Z,96601.00
2022-08-17T15:13:24.781Z,96577.00
2022-08-17T15:18:25.796Z,96572.00
2022-08-17T15:23:26.827Z,96588.00
2022-08-17T15:28:27.808Z,96592.00
2022-08-17T15:33:29.635Z,96584.00
2022-08-17T15:38:33.107Z,96593.00
2022-08-17T15:43:35.775Z,96603.00
2022-08-17T15:48:42.510Z,96598.00
2022-08-17T15:53:48.480Z,96582.00
2022-08-17T15:58:49.402Z,96574.00
2022-08-17T16:04:04.732Z,96570.00
2022-08-17T16:09:25.911Z,96581.00
2022-08-17T16:14:32.464Z,96574.00
2022-08-17T16:19:38.009Z,96580.00
2022-08-17T16:24:47.357Z,96573.00
2022-08-17T16:30:00.166Z,96580.00
2022-08-17T16:35:06.862Z,96590.00
2022-08-17T16:40:08.694Z,96593.00
2022-08-17T16:45:16.214Z,96604.00
2022-08-17T16:50:19.747Z,96596.00
2022-08-17T16:55:23.217Z,96594.00
2022-08-17T17:00:24.206Z,96594.00
2022-08-17T17:06:39.869Z,96596.00
2022-08-17T17:11:47.509Z,96593.00
2022-08-17T17:17:12.783Z,96585.00
2022-08-17T17:22:18.922Z,96583.00
2022-08-17T17:30:45.884Z,96587.00
2022-08-17T17:35:56.125Z,96594.00
2022-08-17T17:41:05.345Z,96590.00
2022-08-17T17:46:29.066Z,96590.00
2022-08-17T17:52:07.798Z,96585.00
2022-08-17T17:58:08.425Z,96595.00
2022-08-17T18:03:29.182Z,96593.00
2022-08-17T18:11:16.139Z,96593.00
2022-08-17T18:16:28.806Z,96596.00
2022-08-17T18:21:38.886Z,96593.00
2022-08-17T18:26:44.947Z,96602.00
2022-08-17T18:31:46.146Z,96606.00
2022-08-17T18:36:47.059Z,96619.00
2022-08-17T18:41:50.297Z,96625.00
2022-08-17T18:47:14.822Z,96616.00
2022-08-17T18:52:28.758Z,96629.00
2022-08-17T18:57:39.037Z,96632.00
2022-08-17T19:02:56.594Z,96629.00
2022-08-17T19:08:34.147Z,96645.00
2022-08-17T19:14:36.190Z,96656.00
2022-08-17T19:19:52.115Z,96673.00
2022-08-17T19:25:03.478Z,96695.00
2022-08-17T19:30:11.755Z,96693.00
2022-08-17T19:35:17.486Z,96698.00
2022-08-17T19:40:52.800Z,96708.00
2022-08-17T19:46:39.314Z,96693.00
2022-08-17T19:51:57.434Z,96698.00
2022-08-17T19:57:26.752Z,96703.00
2022-08-17T20:02:55.497Z,96704.00
2022-08-17T20:08:07.938Z,96692.00
2022-08-17T20:13:14.623Z,96708.00
2022-08-17T20:18:44.017Z,96704.00
2022-08-17T20:24:13.544Z,96696.00
2022-08-17T20:29:58.029Z,96701.00
2022-08-17T20:35:38.170Z,96702.00
2022-08-17T20:41:09.541Z,96702.00
2022-08-17T20:46:32.232Z,96712.00
2022-08-17T20:52:00.413Z,96700.00
2022-08-17T20:57:03.183Z,96706.00
2022-08-17T21:02:20.029Z,96703.00
2022-08-17T21:09:27.366Z,96726.00
2022-08-17T21:14:42.701Z,96733.00
2022-08-17T21:20:48.047Z,96732.00
2022-08-17T21:26:50.286Z,96740.00
2022-08-17T21:34:16.257Z,96733.00
2022-08-17T21:39:24.023Z,96716.00
2022-08-17T21:44:36.215Z,96717.00
2022-08-17T21:49:37.775Z,96718.00
2022-08-17T21:54:46.406Z,96723.00
2022-08-17T22:00:00.097Z,96731.00
2022-08-17T22:05:08.167Z,96735.00
2022-08-17T22:10:39.815Z,96738.00
2022-08-17T22:15:43.038Z,96736.00
2022-08-17T22:20:49.674Z,96730.00
2022-08-17T22:26:04.019Z,96737.00
2022-08-17T22:31:08.465Z,96736.00
2022-08-17T22:37:11.010Z,96737.00
2022-08-17T22:42:14.223Z,96735.00
2022-08-17T22:47:30.884Z,96735.00
2022-08-17T22:59:19.662Z,96735.00
2022-08-17T23:04:35.853Z,96739.00
2022-08-17T23:09:37.433Z,96751.00
2022-08-17T23:14:44.948Z,96757.00
2022-08-17T23:19:45.954Z,96769.00
2022-08-17T23:24:49.089Z,96760.00
2022-08-17T23:29:49.961Z,96760.00
2022-08-17T23:34:51.321Z,96764.00
2022-08-17T23:39:52.196Z,96762.00
2022-08-17T23:44:53.177Z,96765.00
2022-08-17T23:49:54.286Z,96773.00
2022-08-17T23:54:56.711Z,96772.00
2022-08-17T23:59:57.548Z,96783.00
